sensor_id;sensor_type;location;lat;lon;timestamp;temperature;humidity
7016;DHT22;3548;48.402;9.990;2023-09-30T00:00:07;15.20;99.90
7016;DHT22;3548;48.402;9.990;2023-09-30T00:02:34;15.20;99.90
7016;DHT22;3548;48.402;9.990;2023-09-30T00:04:59;15.20;99.90
7016;DHT22;3548;48.402;9.990;2023-09-30T00:07:25;15.20;99.90
7016;DHT22;3548;48.402;9.990;2023-09-30T00:09:51;15.10;99.90
7016;DHT22;3548;48.402;9.990;2023-09-30T00:12:17;15.10;99.90
7016;DHT22;3548;48.402;9.990;2023-09-30T00:14:43;15.10;99.90
7016;DHT22;3548;48.402;9.990;2023-09-30T00:17:09;15.10;99.90
7016;DHT22;3548;48.402;9.990;2023-09-30T00:19:34;15.00;99.90
7016;DHT22;3548;48.402;9.990;2023-09-30T00:22:00;15.00;99.90
7016;DHT22;3548;48.402;9.990;2023-09-30T00:24:26;15.00;99.90
7016;DHT22;3548;48.402;9.990;2023-09-30T00:26:51;15.00;99.90
7016;DHT22;3548;48.402;9.990;2023-09-30T00:29:17;15.00;99.90
7016;DHT22;3548;48.402;9.990;2023-09-30T00:31:43;15.00;99.90
7016;DHT22;3548;48.402;9.990;2023-09-30T00:34:09;15.10;99.90
7016;DHT22;3548;48.402;9.990;2023-09-30T00:36:35;15.10;99.90
7016;DHT22;3548;48.402;9.990;2023-09-30T00:39:01;15.10;99.90
7016;DHT22;3548;48.402;9.990;2023-09-30T00:41:26;15.20;99.90
7016;DHT22;3548;48.402;9.990;2023-09-30T00:43:52;15.20;99.90
7016;DHT22;3548;48.402;9.990;2023-09-30T00:46:29;15.20;99.90
7016;DHT22;3548;48.402;9.990;2023-09-30T00:48:56;15.10;99.90
7016;DHT22;3548;48.402;9.990;2023-09-30T00:51:23;15.10;99.90
7016;DHT22;3548;48.402;9.990;2023-09-30T00:53:51;15.10;99.90
7016;DHT22;3548;48.402;9.990;2023-09-30T00:56:18;15.10;99.90
7016;DHT22;3548;48.402;9.990;2023-09-30T00:58:45;15.00;99.90
7016;DHT22;3548;48.402;9.990;2023-09-30T01:01:12;15.00;99.90
7016;DHT22;3548;48.402;9.990;2023-09-30T01:03:38;15.00;99.90
7016;DHT22;3548;48.402;9.990;2023-09-30T01:06:04;15.00;99.90
7016;DHT22;3548;48.402;9.990;2023-09-30T01:08:30;14.90;99.90
7016;DHT22;3548;48.402;9.990;2023-09-30T01:10:57;14.90;99.90
7016;DHT22;3548;48.402;9.990;2023-09-30T01:13:24;14.90;99.90
7016;DHT22;3548;48.402;9.990;2023-09-30T01:15:56;14.90;99.90
7016;DHT22;3548;48.402;9.990;2023-09-30T01:18:22;14.90;99.90
7016;DHT22;3548;48.402;9.990;2023-09-30T01:20:48;14.80;99.90
7016;DHT22;3548;48.402;9.990;2023-09-30T01:23:13;14.80;99.90
7016;DHT22;3548;48.402;9.990;2023-09-30T01:25:39;14.80;99.90
7016;DHT22;3548;48.402;9.990;2023-09-30T01:28:08;14.80;99.90
7016;DHT22;3548;48.402;9.990;2023-09-30T01:30:34;14.80;99.90
7016;DHT22;3548;48.402;9.990;2023-09-30T01:32:59;14.80;99.90
7016;DHT22;3548;48.402;9.990;2023-09-30T01:35:25;14.70;99.90
7016;DHT22;3548;48.402;9.990;2023-09-30T01:37:51;14.70;99.90
7016;DHT22;3548;48.402;9.990;2023-09-30T01:40:16;14.70;99.90
7016;DHT22;3548;48.402;9.990;2023-09-30T01:42:43;14.70;99.90
7016;DHT22;3548;48.402;9.990;2023-09-30T01:45:09;14.60;99.90
7016;DHT22;3548;48.402;9.990;2023-09-30T01:47:35;14.60;99.90
7016;DHT22;3548;48.402;9.990;2023-09-30T01:50:02;14.50;99.90
7016;DHT22;3548;48.402;9.990;2023-09-30T01:52:28;14.50;99.90
7016;DHT22;3548;48.402;9.990;2023-09-30T01:54:53;14.50;99.90
7016;DHT22;3548;48.402;9.990;2023-09-30T01:57:19;14.40;99.90
7016;DHT22;3548;48.402;9.990;2023-09-30T01:59:45;14.40;99.90
7016;DHT22;3548;48.402;9.990;2023-09-30T02:02:10;14.40;99.90
7016;DHT22;3548;48.402;9.990;2023-09-30T02:04:36;14.30;99.90
7016;DHT22;3548;48.402;9.990;2023-09-30T02:07:02;14.20;99.90
7016;DHT22;3548;48.402;9.990;2023-09-30T02:09:27;14.10;99.90
7016;DHT22;3548;48.402;9.990;2023-09-30T02:11:53;14.10;99.90
7016;DHT22;3548;48.402;9.990;2023-09-30T02:14:20;14.10;99.90
7016;DHT22;3548;48.402;9.990;2023-09-30T02:16:45;14.00;99.90
7016;DHT22;3548;48.402;9.990;2023-09-30T02:19:11;13.90;99.90
7016;DHT22;3548;48.402;9.990;2023-09-30T02:21:39;13.80;99.90
7016;DHT22;3548;48.402;9.990;2023-09-30T02:24:05;13.80;99.90
7016;DHT22;3548;48.402;9.990;2023-09-30T02:26:32;13.80;99.90
7016;DHT22;3548;48.402;9.990;2023-09-30T02:28:58;13.70;99.90
7016;DHT22;3548;48.402;9.990;2023-09-30T02:31:24;13.70;99.90
7016;DHT22;3548;48.402;9.990;2023-09-30T02:33:49;13.70;99.90
7016;DHT22;3548;48.402;9.990;2023-09-30T02:36:15;13.70;99.90
7016;DHT22;3548;48.402;9.990;2023-09-30T02:38:41;13.60;99.90
7016;DHT22;3548;48.402;9.990;2023-09-30T02:41:07;13.60;99.90
7016;DHT22;3548;48.402;9.990;2023-09-30T02:43:32;13.60;99.90
7016;DHT22;3548;48.402;9.990;2023-09-30T02:45:58;13.50;99.90
7016;DHT22;3548;48.402;9.990;2023-09-30T02:48:24;13.50;99.90
7016;DHT22;3548;48.402;9.990;2023-09-30T02:50:49;13.50;99.90
7016;DHT22;3548;48.402;9.990;2023-09-30T02:53:15;13.50;99.90
7016;DHT22;3548;48.402;9.990;2023-09-30T02:55:43;13.50;99.90
7016;DHT22;3548;48.402;9.990;2023-09-30T02:58:09;13.50;99.90
7016;DHT22;3548;48.402;9.990;2023-09-30T03:00:35;13.50;99.90
7016;DHT22;3548;48.402;9.990;2023-09-30T03:03:03;13.60;99.90
7016;DHT22;3548;48.402;9.990;2023-09-30T03:05:29;13.60;99.90
7016;DHT22;3548;48.402;9.990;2023-09-30T03:07:57;13.60;99.90
7016;DHT22;3548;48.402;9.990;2023-09-30T03:10:23;13.60;99.90
7016;DHT22;3548;48.402;9.990;2023-09-30T03:12:56;13.70;99.90
7016;DHT22;3548;48.402;9.990;2023-09-30T03:15:22;13.70;99.90
7016;DHT22;3548;48.402;9.990;2023-09-30T03:17:47;13.70;99.90
7016;DHT22;3548;48.402;9.990;2023-09-30T03:20:14;13.70;99.90
7016;DHT22;3548;48.402;9.990;2023-09-30T03:22:43;13.80;99.90
7016;DHT22;3548;48.402;9.990;2023-09-30T03:25:10;13.70;99.90
7016;DHT22;3548;48.402;9.990;2023-09-30T03:27:37;13.70;99.90
7016;DHT22;3548;48.402;9.990;2023-09-30T03:30:04;13.70;99.90
7016;DHT22;3548;48.402;9.990;2023-09-30T03:32:31;13.60;99.90
7016;DHT22;3548;48.402;9.990;2023-09-30T03:34:59;13.60;99.90
7016;DHT22;3548;48.402;9.990;2023-09-30T03:37:26;13.60;99.90
7016;DHT22;3548;48.402;9.990;2023-09-30T03:39:56;13.60;99.90
7016;DHT22;3548;48.402;9.990;2023-09-30T03:42:23;13.50;99.90
7016;DHT22;3548;48.402;9.990;2023-09-30T03:44:49;13.50;99.90
7016;DHT22;3548;48.402;9.990;2023-09-30T03:47:15;13.50;99.90
7016;DHT22;3548;48.402;9.990;2023-09-30T03:49:42;13.50;99.90
7016;DHT22;3548;48.402;9.990;2023-09-30T03:52:08;13.40;99.90
7016;DHT22;3548;48.402;9.990;2023-09-30T03:54:35;13.40;99.90
7016;DHT22;3548;48.402;9.990;2023-09-30T03:57:00;13.40;99.90
7016;DHT22;3548;48.402;9.990;2023-09-30T03:59:26;13.40;99.90
7016;DHT22;3548;48.402;9.990;2023-09-30T04:01:53;13.40;99.90
7016;DHT22;3548;48.402;9.990;2023-09-30T04:04:24;13.40;99.90
7016;DHT22;3548;48.402;9.990;2023-09-30T04:06:50;13.40;99.90
7016;DHT22;3548;48.402;9.990;2023-09-30T04:09:17;13.40;99.90
7016;DHT22;3548;48.402;9.990;2023-09-30T04:11:42;13.40;99.90
7016;DHT22;3548;48.402;9.990;2023-09-30T04:14:09;13.40;99.90
7016;DHT22;3548;48.402;9.990;2023-09-30T04:16:35;13.40;99.90
7016;DHT22;3548;48.402;9.990;2023-09-30T04:19:03;13.40;99.90
7016;DHT22;3548;48.402;9.990;2023-09-30T04:21:29;13.30;99.90
7016;DHT22;3548;48.402;9.990;2023-09-30T04:23:57;13.30;99.90
7016;DHT22;3548;48.402;9.990;2023-09-30T04:26:23;13.30;99.90
7016;DHT22;3548;48.402;9.990;2023-09-30T04:28:48;13.20;99.90
7016;DHT22;3548;48.402;9.990;2023-09-30T04:31:15;13.30;99.90
7016;DHT22;3548;48.402;9.990;2023-09-30T04:33:40;13.20;99.90
7016;DHT22;3548;48.402;9.990;2023-09-30T04:36:06;13.20;99.90
7016;DHT22;3548;48.402;9.990;2023-09-30T04:38:37;13.20;99.90
7016;DHT22;3548;48.402;9.990;2023-09-30T04:41:03;13.20;99.90
7016;DHT22;3548;48.402;9.990;2023-09-30T04:43:29;13.20;99.90
7016;DHT22;3548;48.402;9.990;2023-09-30T04:45:55;13.20;99.90
7016;DHT22;3548;48.402;9.990;2023-09-30T04:48:23;13.20;99.90
7016;DHT22;3548;48.402;9.990;2023-09-30T04:50:48;13.20;99.90
7016;DHT22;3548;48.402;9.990;2023-09-30T04:53:14;13.20;99.90
7016;DHT22;3548;48.402;9.990;2023-09-30T04:55:43;13.20;99.90
7016;DHT22;3548;48.402;9.990;2023-09-30T04:58:08;13.20;99.90
7016;DHT22;3548;48.402;9.990;2023-09-30T05:00:34;13.20;99.90
7016;DHT22;3548;48.402;9.990;2023-09-30T05:03:01;13.20;99.90
7016;DHT22;3548;48.402;9.990;2023-09-30T05:05:27;13.20;99.90
7016;DHT22;3548;48.402;9.990;2023-09-30T05:07:54;13.20;99.90
7016;DHT22;3548;48.402;9.990;2023-09-30T05:10:19;13.20;99.90
7016;DHT22;3548;48.402;9.990;2023-09-30T05:12:45;13.30;99.90
7016;DHT22;3548;48.402;9.990;2023-09-30T05:15:12;13.30;99.90
7016;DHT22;3548;48.402;9.990;2023-09-30T05:17:41;13.30;99.90
7016;DHT22;3548;48.402;9.990;2023-09-30T05:20:09;13.40;99.90
7016;DHT22;3548;48.402;9.990;2023-09-30T05:22:36;13.40;99.90
7016;DHT22;3548;48.402;9.990;2023-09-30T05:25:01;13.50;99.90
7016;DHT22;3548;48.402;9.990;2023-09-30T05:27:27;13.50;99.90
7016;DHT22;3548;48.402;9.990;2023-09-30T05:29:53;13.50;99.90
7016;DHT22;3548;48.402;9.990;2023-09-30T05:32:19;13.60;99.90
7016;DHT22;3548;48.402;9.990;2023-09-30T05:34:44;13.60;99.90
7016;DHT22;3548;48.402;9.990;2023-09-30T05:37:10;13.70;99.90
7016;DHT22;3548;48.402;9.990;2023-09-30T05:39:37;13.70;99.90
7016;DHT22;3548;48.402;9.990;2023-09-30T05:42:03;13.70;99.90
7016;DHT22;3548;48.402;9.990;2023-09-30T05:44:29;13.70;99.90
7016;DHT22;3548;48.402;9.990;2023-09-30T05:46:54;13.70;99.90
7016;DHT22;3548;48.402;9.990;2023-09-30T05:49:20;13.70;99.90
7016;DHT22;3548;48.402;9.990;2023-09-30T05:51:45;13.70;99.90
7016;DHT22;3548;48.402;9.990;2023-09-30T05:54:12;13.70;99.90
7016;DHT22;3548;48.402;9.990;2023-09-30T05:56:38;13.70;99.90
7016;DHT22;3548;48.402;9.990;2023-09-30T05:59:04;13.70;99.90
7016;DHT22;3548;48.402;9.990;2023-09-30T06:01:31;13.70;99.90
7016;DHT22;3548;48.402;9.990;2023-09-30T06:03:58;13.70;99.90
7016;DHT22;3548;48.402;9.990;2023-09-30T06:06:23;13.70;99.90
7016;DHT22;3548;48.402;9.990;2023-09-30T06:08:49;13.70;99.90
7016;DHT22;3548;48.402;9.990;2023-09-30T06:11:19;13.70;99.90
7016;DHT22;3548;48.402;9.990;2023-09-30T06:13:45;13.70;99.90
7016;DHT22;3548;48.402;9.990;2023-09-30T06:16:12;13.70;99.90
7016;DHT22;3548;48.402;9.990;2023-09-30T06:18:38;13.80;99.90
7016;DHT22;3548;48.402;9.990;2023-09-30T06:21:03;13.80;99.90
7016;DHT22;3548;48.402;9.990;2023-09-30T06:23:30;13.80;99.90
7016;DHT22;3548;48.402;9.990;2023-09-30T06:25:56;13.90;99.90
7016;DHT22;3548;48.402;9.990;2023-09-30T06:28:22;13.90;99.90
7016;DHT22;3548;48.402;9.990;2023-09-30T06:30:51;14.00;99.90
7016;DHT22;3548;48.402;9.990;2023-09-30T06:33:17;14.00;99.90
7016;DHT22;3548;48.402;9.990;2023-09-30T06:35:43;14.10;99.90
7016;DHT22;3548;48.402;9.990;2023-09-30T06:38:17;14.10;99.90
7016;DHT22;3548;48.402;9.990;2023-09-30T06:40:43;14.10;99.90
7016;DHT22;3548;48.402;9.990;2023-09-30T06:43:08;14.10;99.90
7016;DHT22;3548;48.402;9.990;2023-09-30T06:45:34;14.20;99.90
7016;DHT22;3548;48.402;9.990;2023-09-30T06:48:04;14.30;99.90
7016;DHT22;3548;48.402;9.990;2023-09-30T06:50:30;14.40;99.90
7016;DHT22;3548;48.402;9.990;2023-09-30T06:52:57;14.50;99.90
7016;DHT22;3548;48.402;9.990;2023-09-30T06:55:22;14.60;99.90
7016;DHT22;3548;48.402;9.990;2023-09-30T06:57:50;14.70;99.90
7016;DHT22;3548;48.402;9.990;2023-09-30T07:00:16;14.80;99.90
7016;DHT22;3548;48.402;9.990;2023-09-30T07:02:41;14.80;99.90
7016;DHT22;3548;48.402;9.990;2023-09-30T07:05:08;14.90;99.90
7016;DHT22;3548;48.402;9.990;2023-09-30T07:07:34;14.90;99.90
7016;DHT22;3548;48.402;9.990;2023-09-30T07:09:59;14.90;99.90
7016;DHT22;3548;48.402;9.990;2023-09-30T07:12:25;15.00;99.90
7016;DHT22;3548;48.402;9.990;2023-09-30T07:14:50;15.10;99.90
7016;DHT22;3548;48.402;9.990;2023-09-30T07:17:16;15.20;99.90
7016;DHT22;3548;48.402;9.990;2023-09-30T07:19:41;15.30;99.90
7016;DHT22;3548;48.402;9.990;2023-09-30T07:22:07;15.40;99.90
7016;DHT22;3548;48.402;9.990;2023-09-30T07:24:32;15.60;99.90
7016;DHT22;3548;48.402;9.990;2023-09-30T07:26:58;15.70;99.90
7016;DHT22;3548;48.402;9.990;2023-09-30T07:29:24;15.70;99.90
7016;DHT22;3548;48.402;9.990;2023-09-30T07:31:50;15.70;99.90
7016;DHT22;3548;48.402;9.990;2023-09-30T07:34:16;15.70;99.90
7016;DHT22;3548;48.402;9.990;2023-09-30T07:36:42;15.60;99.90
7016;DHT22;3548;48.402;9.990;2023-09-30T07:39:08;15.70;99.90
7016;DHT22;3548;48.402;9.990;2023-09-30T07:41:37;15.70;99.90
7016;DHT22;3548;48.402;9.990;2023-09-30T07:44:02;15.80;99.90
7016;DHT22;3548;48.402;9.990;2023-09-30T07:46:28;15.80;99.90
7016;DHT22;3548;48.402;9.990;2023-09-30T07:48:54;15.70;99.90
7016;DHT22;3548;48.402;9.990;2023-09-30T07:51:20;15.70;99.90
7016;DHT22;3548;48.402;9.990;2023-09-30T07:53:46;15.80;99.90
7016;DHT22;3548;48.402;9.990;2023-09-30T07:56:12;15.90;99.90
7016;DHT22;3548;48.402;9.990;2023-09-30T07:58:38;16.00;99.90
7016;DHT22;3548;48.402;9.990;2023-09-30T08:01:03;16.10;99.90
7016;DHT22;3548;48.402;9.990;2023-09-30T08:03:29;16.10;99.90
7016;DHT22;3548;48.402;9.990;2023-09-30T08:05:56;16.20;99.90
7016;DHT22;3548;48.402;9.990;2023-09-30T08:08:21;16.30;99.90
7016;DHT22;3548;48.402;9.990;2023-09-30T08:10:49;16.50;99.90
7016;DHT22;3548;48.402;9.990;2023-09-30T08:13:15;16.60;99.90
7016;DHT22;3548;48.402;9.990;2023-09-30T08:15:42;16.70;99.90
7016;DHT22;3548;48.402;9.990;2023-09-30T08:18:08;16.80;99.90
7016;DHT22;3548;48.402;9.990;2023-09-30T08:20:34;16.90;99.90
7016;DHT22;3548;48.402;9.990;2023-09-30T08:22:59;17.10;99.90
7016;DHT22;3548;48.402;9.990;2023-09-30T08:25:25;17.30;99.90
7016;DHT22;3548;48.402;9.990;2023-09-30T08:27:51;17.40;99.90
7016;DHT22;3548;48.402;9.990;2023-09-30T08:30:17;17.40;99.90
7016;DHT22;3548;48.402;9.990;2023-09-30T08:32:43;17.50;99.90
7016;DHT22;3548;48.402;9.990;2023-09-30T08:35:09;17.50;99.90
7016;DHT22;3548;48.402;9.990;2023-09-30T08:37:35;17.50;99.90
7016;DHT22;3548;48.402;9.990;2023-09-30T08:40:00;17.50;99.90
7016;DHT22;3548;48.402;9.990;2023-09-30T08:42:27;17.50;99.90
7016;DHT22;3548;48.402;9.990;2023-09-30T08:44:58;17.40;99.90
7016;DHT22;3548;48.402;9.990;2023-09-30T08:47:26;17.40;99.90
7016;DHT22;3548;48.402;9.990;2023-09-30T08:49:54;17.40;99.90
7016;DHT22;3548;48.402;9.990;2023-09-30T08:52:23;17.40;99.90
7016;DHT22;3548;48.402;9.990;2023-09-30T08:54:49;17.60;99.90
7016;DHT22;3548;48.402;9.990;2023-09-30T08:57:19;17.70;99.90
7016;DHT22;3548;48.402;9.990;2023-09-30T08:59:46;17.80;99.90
7016;DHT22;3548;48.402;9.990;2023-09-30T09:02:13;17.90;99.90
7016;DHT22;3548;48.402;9.990;2023-09-30T09:04:39;17.90;99.90
7016;DHT22;3548;48.402;9.990;2023-09-30T09:07:05;18.00;99.90
7016;DHT22;3548;48.402;9.990;2023-09-30T09:09:31;18.00;99.90
7016;DHT22;3548;48.402;9.990;2023-09-30T09:11:58;18.00;99.90
7016;DHT22;3548;48.402;9.990;2023-09-30T09:14:39;17.90;99.90
7016;DHT22;3548;48.402;9.990;2023-09-30T09:17:07;17.90;99.90
7016;DHT22;3548;48.402;9.990;2023-09-30T09:19:33;17.90;99.90
7016;DHT22;3548;48.402;9.990;2023-09-30T09:22:00;18.00;99.90
7016;DHT22;3548;48.402;9.990;2023-09-30T09:24:36;18.20;99.90
7016;DHT22;3548;48.402;9.990;2023-09-30T09:27:10;18.30;99.90
7016;DHT22;3548;48.402;9.990;2023-09-30T09:29:37;18.50;99.90
7016;DHT22;3548;48.402;9.990;2023-09-30T09:32:13;18.50;99.90
7016;DHT22;3548;48.402;9.990;2023-09-30T09:34:40;18.60;99.90
7016;DHT22;3548;48.402;9.990;2023-09-30T09:37:19;18.80;99.90
7016;DHT22;3548;48.402;9.990;2023-09-30T09:39:56;19.00;99.90
7016;DHT22;3548;48.402;9.990;2023-09-30T09:42:30;19.20;99.90
7016;DHT22;3548;48.402;9.990;2023-09-30T09:44:59;19.40;99.90
7016;DHT22;3548;48.402;9.990;2023-09-30T09:47:24;19.50;99.90
7016;DHT22;3548;48.402;9.990;2023-09-30T09:49:51;19.60;99.90
7016;DHT22;3548;48.402;9.990;2023-09-30T09:52:19;19.80;99.90
7016;DHT22;3548;48.402;9.990;2023-09-30T09:54:45;19.70;99.90
7016;DHT22;3548;48.402;9.990;2023-09-30T09:57:14;19.80;99.90
7016;DHT22;3548;48.402;9.990;2023-09-30T09:59:43;19.80;99.90
7016;DHT22;3548;48.402;9.990;2023-09-30T10:02:11;19.90;99.90
7016;DHT22;3548;48.402;9.990;2023-09-30T10:04:43;19.80;99.90
7016;DHT22;3548;48.402;9.990;2023-09-30T10:07:27;19.80;99.90
7016;DHT22;3548;48.402;9.990;2023-09-30T10:09:55;19.80;99.90
7016;DHT22;3548;48.402;9.990;2023-09-30T10:12:25;19.90;99.90
7016;DHT22;3548;48.402;9.990;2023-09-30T10:14:52;20.00;99.90
7016;DHT22;3548;48.402;9.990;2023-09-30T10:17:19;20.10;99.90
7016;DHT22;3548;48.402;9.990;2023-09-30T10:20:06;20.10;99.90
7016;DHT22;3548;48.402;9.990;2023-09-30T10:22:32;20.40;99.90
7016;DHT22;3548;48.402;9.990;2023-09-30T10:24:59;20.50;99.90
7016;DHT22;3548;48.402;9.990;2023-09-30T10:29:57;20.60;99.90
7016;DHT22;3548;48.402;9.990;2023-09-30T10:40:52;20.60;99.90
7016;DHT22;3548;48.402;9.990;2023-09-30T10:45:59;20.80;99.80
7016;DHT22;3548;48.402;9.990;2023-09-30T10:51:11;20.70;99.90
7016;DHT22;3548;48.402;9.990;2023-09-30T10:53:48;20.90;99.80
7016;DHT22;3548;48.402;9.990;2023-09-30T10:56:17;21.00;99.40
7016;DHT22;3548;48.402;9.990;2023-09-30T10:58:48;21.00;99.50
7016;DHT22;3548;48.402;9.990;2023-09-30T11:01:16;21.00;99.40
7016;DHT22;3548;48.402;9.990;2023-09-30T11:03:43;21.00;99.20
7016;DHT22;3548;48.402;9.990;2023-09-30T11:06:15;21.00;99.10
7016;DHT22;3548;48.402;9.990;2023-09-30T11:11:17;21.00;99.00
7016;DHT22;3548;48.402;9.990;2023-09-30T11:13:43;21.20;98.80
7016;DHT22;3548;48.402;9.990;2023-09-30T11:16:08;21.30;98.30
7016;DHT22;3548;48.402;9.990;2023-09-30T11:18:34;21.20;97.40
7016;DHT22;3548;48.402;9.990;2023-09-30T11:21:10;21.00;97.70
7016;DHT22;3548;48.402;9.990;2023-09-30T11:23:37;20.80;98.00
7016;DHT22;3548;48.402;9.990;2023-09-30T11:26:04;20.70;98.10
7016;DHT22;3548;48.402;9.990;2023-09-30T11:28:38;20.70;97.90
7016;DHT22;3548;48.402;9.990;2023-09-30T11:31:08;20.70;97.90
7016;DHT22;3548;48.402;9.990;2023-09-30T11:33:47;20.70;98.00
7016;DHT22;3548;48.402;9.990;2023-09-30T11:36:14;20.60;98.00
7016;DHT22;3548;48.402;9.990;2023-09-30T11:38:44;20.60;98.40
7016;DHT22;3548;48.402;9.990;2023-09-30T11:41:11;20.50;98.50
7016;DHT22;3548;48.402;9.990;2023-09-30T11:43:36;20.50;98.60
7016;DHT22;3548;48.402;9.990;2023-09-30T11:46:06;20.60;98.40
7016;DHT22;3548;48.402;9.990;2023-09-30T11:48:55;20.70;98.30
7016;DHT22;3548;48.402;9.990;2023-09-30T11:51:22;20.90;98.20
7016;DHT22;3548;48.402;9.990;2023-09-30T11:53:50;21.10;97.90
7016;DHT22;3548;48.402;9.990;2023-09-30T11:56:23;21.20;97.90
7016;DHT22;3548;48.402;9.990;2023-09-30T11:58:53;21.20;97.80
7016;DHT22;3548;48.402;9.990;2023-09-30T12:01:19;21.40;97.80
7016;DHT22;3548;48.402;9.990;2023-09-30T12:03:47;21.40;97.80
7016;DHT22;3548;48.402;9.990;2023-09-30T12:06:13;21.40;97.60
7016;DHT22;3548;48.402;9.990;2023-09-30T12:08:39;21.30;97.60
7016;DHT22;3548;48.402;9.990;2023-09-30T12:11:05;21.20;97.40
7016;DHT22;3548;48.402;9.990;2023-09-30T12:13:31;21.20;97.60
7016;DHT22;3548;48.402;9.990;2023-09-30T12:15:56;21.10;97.60
7016;DHT22;3548;48.402;9.990;2023-09-30T12:18:22;21.00;97.60
7016;DHT22;3548;48.402;9.990;2023-09-30T12:20:52;21.00;97.00
7016;DHT22;3548;48.402;9.990;2023-09-30T12:23:18;20.80;97.60
7016;DHT22;3548;48.402;9.990;2023-09-30T12:25:45;20.60;97.70
7016;DHT22;3548;48.402;9.990;2023-09-30T12:28:11;20.40;97.90
7016;DHT22;3548;48.402;9.990;2023-09-30T12:30:37;20.40;98.40
7016;DHT22;3548;48.402;9.990;2023-09-30T12:33:03;20.40;98.30
7016;DHT22;3548;48.402;9.990;2023-09-30T12:35:28;20.40;98.20
7016;DHT22;3548;48.402;9.990;2023-09-30T12:37:54;20.50;97.90
7016;DHT22;3548;48.402;9.990;2023-09-30T12:40:19;20.50;98.20
7016;DHT22;3548;48.402;9.990;2023-09-30T12:42:46;20.60;97.90
7016;DHT22;3548;48.402;9.990;2023-09-30T12:45:12;20.70;98.00
7016;DHT22;3548;48.402;9.990;2023-09-30T12:47:38;20.70;97.90
7016;DHT22;3548;48.402;9.990;2023-09-30T12:50:04;20.70;98.00
7016;DHT22;3548;48.402;9.990;2023-09-30T12:52:30;20.70;98.20
7016;DHT22;3548;48.402;9.990;2023-09-30T12:54:57;20.70;97.40
7016;DHT22;3548;48.402;9.990;2023-09-30T12:57:23;20.70;97.40
7016;DHT22;3548;48.402;9.990;2023-09-30T12:59:49;20.70;97.70
7016;DHT22;3548;48.402;9.990;2023-09-30T13:02:15;20.80;97.50
7016;DHT22;3548;48.402;9.990;2023-09-30T13:04:44;21.00;97.40
7016;DHT22;3548;48.402;9.990;2023-09-30T13:07:10;21.10;96.70
7016;DHT22;3548;48.402;9.990;2023-09-30T13:09:36;21.10;96.80
7016;DHT22;3548;48.402;9.990;2023-09-30T13:12:03;21.10;97.00
7016;DHT22;3548;48.402;9.990;2023-09-30T13:14:28;21.10;97.00
7016;DHT22;3548;48.402;9.990;2023-09-30T13:16:54;21.20;96.90
7016;DHT22;3548;48.402;9.990;2023-09-30T13:19:20;21.00;96.50
7016;DHT22;3548;48.402;9.990;2023-09-30T13:21:51;20.90;96.90
7016;DHT22;3548;48.402;9.990;2023-09-30T13:24:19;20.70;97.00
7016;DHT22;3548;48.402;9.990;2023-09-30T13:26:45;20.70;96.90
7016;DHT22;3548;48.402;9.990;2023-09-30T13:29:11;20.60;96.60
7016;DHT22;3548;48.402;9.990;2023-09-30T13:31:37;20.50;96.60
7016;DHT22;3548;48.402;9.990;2023-09-30T13:34:04;20.60;96.50
7016;DHT22;3548;48.402;9.990;2023-09-30T13:36:29;20.70;96.60
7016;DHT22;3548;48.402;9.990;2023-09-30T13:38:55;20.90;96.50
7016;DHT22;3548;48.402;9.990;2023-09-30T13:41:21;21.00;96.20
7016;DHT22;3548;48.402;9.990;2023-09-30T13:43:46;21.00;96.10
7016;DHT22;3548;48.402;9.990;2023-09-30T13:46:12;21.10;95.40
7016;DHT22;3548;48.402;9.990;2023-09-30T13:48:38;21.10;95.20
7016;DHT22;3548;48.402;9.990;2023-09-30T13:51:08;21.10;95.20
7016;DHT22;3548;48.402;9.990;2023-09-30T13:53:34;21.20;95.10
7016;DHT22;3548;48.402;9.990;2023-09-30T13:56:00;21.30;95.00
7016;DHT22;3548;48.402;9.990;2023-09-30T13:58:25;21.40;95.00
7016;DHT22;3548;48.402;9.990;2023-09-30T14:00:51;21.50;94.90
7016;DHT22;3548;48.402;9.990;2023-09-30T14:03:22;21.60;94.90
7016;DHT22;3548;48.402;9.990;2023-09-30T14:05:50;21.70;94.90
7016;DHT22;3548;48.402;9.990;2023-09-30T14:08:16;21.70;94.80
7016;DHT22;3548;48.402;9.990;2023-09-30T14:10:42;21.60;95.00
7016;DHT22;3548;48.402;9.990;2023-09-30T14:13:09;21.50;95.20
7016;DHT22;3548;48.402;9.990;2023-09-30T14:15:35;21.30;95.30
7016;DHT22;3548;48.402;9.990;2023-09-30T14:18:02;21.10;95.40
7016;DHT22;3548;48.402;9.990;2023-09-30T14:20:27;21.10;95.60
7016;DHT22;3548;48.402;9.990;2023-09-30T14:22:53;21.10;95.50
7016;DHT22;3548;48.402;9.990;2023-09-30T14:25:21;20.90;95.90
7016;DHT22;3548;48.402;9.990;2023-09-30T14:27:48;20.80;96.10
7016;DHT22;3548;48.402;9.990;2023-09-30T14:30:14;20.80;96.40
7016;DHT22;3548;48.402;9.990;2023-09-30T14:32:40;20.80;96.20
7016;DHT22;3548;48.402;9.990;2023-09-30T14:35:06;20.90;95.80
7016;DHT22;3548;48.402;9.990;2023-09-30T14:37:32;20.90;96.10
7016;DHT22;3548;48.402;9.990;2023-09-30T14:39:58;20.90;96.30
7016;DHT22;3548;48.402;9.990;2023-09-30T14:42:23;20.90;96.60
7016;DHT22;3548;48.402;9.990;2023-09-30T14:44:49;20.90;96.50
7016;DHT22;3548;48.402;9.990;2023-09-30T14:47:14;20.90;96.70
7016;DHT22;3548;48.402;9.990;2023-09-30T14:49:41;20.90;96.50
7016;DHT22;3548;48.402;9.990;2023-09-30T14:52:07;20.90;96.50
7016;DHT22;3548;48.402;9.990;2023-09-30T14:54:35;20.80;96.50
7016;DHT22;3548;48.402;9.990;2023-09-30T14:57:00;20.80;96.50
7016;DHT22;3548;48.402;9.990;2023-09-30T14:59:26;20.80;96.50
7016;DHT22;3548;48.402;9.990;2023-09-30T15:01:52;20.80;96.40
7016;DHT22;3548;48.402;9.990;2023-09-30T15:04:18;20.70;96.20
7016;DHT22;3548;48.402;9.990;2023-09-30T15:06:44;20.70;96.30
7016;DHT22;3548;48.402;9.990;2023-09-30T15:09:11;20.70;96.30
7016;DHT22;3548;48.402;9.990;2023-09-30T15:11:37;20.60;95.90
7016;DHT22;3548;48.402;9.990;2023-09-30T15:14:03;20.50;95.60
7016;DHT22;3548;48.402;9.990;2023-09-30T15:16:30;20.40;95.80
7016;DHT22;3548;48.402;9.990;2023-09-30T15:18:56;20.30;95.90
7016;DHT22;3548;48.402;9.990;2023-09-30T15:21:22;20.20;96.20
7016;DHT22;3548;48.402;9.990;2023-09-30T15:23:48;20.20;96.40
7016;DHT22;3548;48.402;9.990;2023-09-30T15:26:14;20.10;96.50
7016;DHT22;3548;48.402;9.990;2023-09-30T15:28:41;20.10;96.50
7016;DHT22;3548;48.402;9.990;2023-09-30T15:31:07;20.10;96.40
7016;DHT22;3548;48.402;9.990;2023-09-30T15:33:33;20.10;96.30
7016;DHT22;3548;48.402;9.990;2023-09-30T15:35:59;20.00;96.20
7016;DHT22;3548;48.402;9.990;2023-09-30T15:38:25;20.00;96.30
7016;DHT22;3548;48.402;9.990;2023-09-30T15:40:55;20.00;96.40
7016;DHT22;3548;48.402;9.990;2023-09-30T15:43:24;20.00;96.60
7016;DHT22;3548;48.402;9.990;2023-09-30T15:45:50;20.00;96.60
7016;DHT22;3548;48.402;9.990;2023-09-30T15:48:16;20.00;96.70
7016;DHT22;3548;48.402;9.990;2023-09-30T15:50:42;19.90;96.70
7016;DHT22;3548;48.402;9.990;2023-09-30T15:53:08;19.90;96.90
7016;DHT22;3548;48.402;9.990;2023-09-30T15:55:33;19.80;96.70
7016;DHT22;3548;48.402;9.990;2023-09-30T15:58:00;19.80;96.70
7016;DHT22;3548;48.402;9.990;2023-09-30T16:00:26;19.70;96.90
7016;DHT22;3548;48.402;9.990;2023-09-30T16:02:51;19.70;97.20
7016;DHT22;3548;48.402;9.990;2023-09-30T16:05:17;19.60;97.00
7016;DHT22;3548;48.402;9.990;2023-09-30T16:07:42;19.60;97.10
7016;DHT22;3548;48.402;9.990;2023-09-30T16:10:11;19.60;97.20
7016;DHT22;3548;48.402;9.990;2023-09-30T16:12:37;19.60;97.30
7016;DHT22;3548;48.402;9.990;2023-09-30T16:15:04;19.60;97.30
7016;DHT22;3548;48.402;9.990;2023-09-30T16:17:31;19.60;97.30